Yuan Shun Hai — 3FZO2 — position and weather

sailwx.info

Track history (hours):
 
Tides and Currents Weather Stations Pressure Air Temp Water Temp Dewpoint Dewpoint Depression Visibility Wind Speed Wind Dir Waves Ship Positions

Yuan Shun Hai

Last reported at 2017-Sep-26 00:32 UTC. Time now 2017-Sep-26 02:09 UTC.
Position N 55°50' E 017°05'.

Length 190 m; draft 7 m.

Type: Cargo ship. MMSI: 353863000.

Date/timePositionNaut miles runAvg speedWind from/ knotsBaromVisibWave heightAir tempDewpointWater temp
2017-Sep-26 00:32N 55°50' E 017°05'213.2
2017-Sep-26 00:25N 55°50' E 017°03'513.2
2017-Sep-26 00:00N 55°48' E 016°53'813.0
2017-Sep-25 23:24N 55°46' E 016°40'511.6
2017-Sep-25 23:00N 55°45' E 016°32'3 5.6
2017-Sep-25 22:30N 55°45' E 016°27'3 5.4
2017-Sep-25 22:00N 55°44' E 016°22'3 5.2
2017-Sep-25 21:30N 55°44' E 016°18'3 5.0
2017-Sep-25 21:00N 55°43' E 016°14'2 4.9
2017-Sep-25 20:30N 55°42' E 016°09'2 4.7
2017-Sep-25 20:00N 55°41' E 016°05'2 4.6
2017-Sep-25 19:30N 55°41' E 016°01'2 4.6
2017-Sep-25 19:00N 55°40' E 015°57'2 4.6
2017-Sep-25 18:30N 55°40' E 015°53'2 4.4
2017-Sep-25 18:00N 55°40' E 015°50'2 4.2
2017-Sep-25 17:30N 55°39' E 015°46'2 3.9
2017-Sep-25 17:00N 55°39' E 015°43'2 4.4
2017-Sep-25 16:30N 55°38' E 015°39'510.6
2017-Sep-25 16:00N 55°37' E 015°30'612.5
2017-Sep-25 15:30N 55°34' E 015°20'612.3
2017-Sep-25 15:00N 55°32' E 015°09'612.4
2017-Sep-25 14:30N 55°30' E 014°59'612.5
2017-Sep-25 14:00N 55°28' E 014°49'612.6
2017-Sep-25 13:30N 55°24' E 014°39'612.7
2017-Sep-25 13:00N 55°20' E 014°32'712.7
2017-Sep-25 12:29N 55°14' E 014°25'612.7
2017-Sep-25 12:00N 55°10' E 014°18'612.3
2017-Sep-25 11:30N 55°09' E 014°08'1212.3
2017-Sep-25 10:31N 55°10' E 013°47'412.2
2017-Sep-25 10:12N 55°10' E 013°40'312.3
2017-Sep-25 09:56N 55°10' E 013°34'512.5
2017-Sep-25 09:30N 55°10' E 013°25'713.2
2017-Sep-25 09:00N 55°10' E 013°13'713.0
2017-Sep-25 08:30N 55°12' E 013°02'713.4
2017-Sep-25 08:00N 55°15' E 012°52'713.4
2017-Sep-25 07:30N 55°17' E 012°41'611.3
2017-Sep-25 07:00N 55°22' E 012°38'612.9
2017-Sep-25 06:30N 55°28' E 012°41'4 7.5
2017-Sep-25 06:00N 55°31' E 012°45'4 8.5
2017-Sep-25 05:30N 55°35' E 012°50'4 8.6
2017-Sep-25 05:00N 55°38' E 012°55'3 6.9
2017-Sep-25 04:30N 55°41' E 012°54'612.6
2017-Sep-25 04:00N 55°47' E 012°49'612.4
2017-Sep-25 03:30N 55°53' E 012°44'612.4
2017-Sep-25 03:00N 55°59' E 012°41'611.9
2017-Sep-25 02:30N 56°04' E 012°37'5 9.8
2017-Sep-25 02:00N 56°07' E 012°30'4 7.4
2017-Sep-25 01:30N 56°09' E 012°25'4 7.1
2017-Sep-25 01:00N 56°12' E 012°20'713.1
2017-Sep-25 00:30N 56°15' E 012°10'3213.4
2017-Sep-24 22:06N 56°46' E 011°51'214.1
2017-Sep-24 21:56N 56°48' E 011°50'614.3
2017-Sep-24 21:30N 56°53' E 011°46'714.4
2017-Sep-24 21:00N 57°00' E 011°42'914.1
2017-Sep-24 20:22N 57°09' E 011°36'514.0
2017-Sep-24 19:59N 57°14' E 011°33'714.1
2017-Sep-24 19:30N 57°20' E 011°29'714.2
2017-Sep-24 19:01N 57°27' E 011°24'713.6
2017-Sep-24 18:30N 57°32' E 011°15'713.9
2017-Sep-24 18:00N 57°36' E 011°05'714.3
2017-Sep-24 17:30N 57°41' E 010°55'714.0
2017-Sep-24 17:00N 57°46' E 010°46'713.1
2017-Sep-24 16:30N 57°49' E 010°36'714.3
2017-Sep-24 16:00N 57°50' E 010°23'714.3
2017-Sep-24 15:30N 57°51' E 010°09'1114.1
2017-Sep-24 14:45N 57°52' E 009°49'3514.0
2017-Sep-24 12:17N 57°32' E 008°56'1313.9
2017-Sep-24 11:23N 57°25' E 008°37'714.1
2017-Sep-24 10:54N 57°21' E 008°27'614.1
2017-Sep-24 10:27N 57°17' E 008°17'614.2
2017-Sep-24 10:00N 57°13' E 008°08'  
2017-Sep-22 01:59N 51°56' E 004°11'0 0.0
2017-Sep-22 01:29N 51°56' E 004°11'0 0.0
2017-Sep-22 00:59N 51°56' E 004°11'0 0.0
2017-Sep-22 00:29N 51°56' E 004°11'0 0.0
2017-Sep-21 23:59N 51°56' E 004°11'0 0.0
2017-Sep-21 23:29N 51°56' E 004°11'0 0.0
2017-Sep-21 22:59N 51°56' E 004°11'0 0.0
2017-Sep-21 22:29N 51°56' E 004°11'0 0.0
2017-Sep-21 21:59N 51°56' E 004°11'0 0.0
2017-Sep-21 21:29N 51°56' E 004°11'0 0.0
2017-Sep-21 20:59N 51°56' E 004°11'0 0.0
2017-Sep-21 20:29N 51°56' E 004°11'0 0.0
2017-Sep-21 19:59N 51°56' E 004°11'0 0.0
2017-Sep-21 19:29N 51°56' E 004°11'0 0.0
2017-Sep-21 18:59N 51°56' E 004°11'0 0.0
2017-Sep-21 18:29N 51°56' E 004°11'0 0.0
2017-Sep-21 17:59N 51°56' E 004°11'0 0.0
2017-Sep-21 17:29N 51°56' E 004°11'0 0.0
2017-Sep-21 16:59N 51°56' E 004°11'0 0.0
2017-Sep-21 16:29N 51°56' E 004°11'0 0.0
2017-Sep-21 15:59N 51°56' E 004°11'0 0.0
2017-Sep-21 15:29N 51°56' E 004°11'0 0.0
2017-Sep-21 14:59N 51°56' E 004°11'0 0.0
2017-Sep-21 14:29N 51°56' E 004°11'0 0.0
2017-Sep-21 13:59N 51°56' E 004°11'0 0.0
2017-Sep-21 13:26N 51°56' E 004°11'0 0.0
2017-Sep-21 12:59N 51°56' E 004°11'0 0.0
2017-Sep-21 12:29N 51°56' E 004°11'0 0.0
2017-Sep-21 11:59N 51°56' E 004°11'0 0.0
2017-Sep-21 11:29N 51°56' E 004°11'0 0.0
2017-Sep-21 10:59N 51°56' E 004°11'0 0.0
2017-Sep-21 10:29N 51°56' E 004°11'0 0.0
2017-Sep-21 09:59N 51°56' E 004°11'0 0.0
2017-Sep-21 09:29N 51°56' E 004°11'0 0.0
2017-Sep-21 08:59N 51°56' E 004°11'0 0.0
2017-Sep-21 08:29N 51°56' E 004°11'0 0.0
2017-Sep-21 07:59N 51°56' E 004°11'0 0.0
2017-Sep-21 07:29N 51°56' E 004°11'0 0.0
2017-Sep-21 06:59N 51°56' E 004°11'0 0.0
2017-Sep-21 06:29N 51°56' E 004°11'0 0.0
2017-Sep-21 05:59N 51°56' E 004°11'0 0.0
2017-Sep-21 05:29N 51°56' E 004°11'0 0.0
2017-Sep-21 04:59N 51°56' E 004°11'0 0.0
2017-Sep-21 04:29N 51°56' E 004°11'0 0.0
2017-Sep-21 03:59N 51°56' E 004°11'0 0.0
2017-Sep-21 03:29N 51°56' E 004°11'0 0.0
2017-Sep-21 02:59N 51°56' E 004°11'0 0.0
2017-Sep-21 02:29N 51°56' E 004°11'0 0.0
2017-Sep-21 01:59N 51°56' E 004°11'0 0.0
2017-Sep-21 01:29N 51°56' E 004°11'0 0.0
2017-Sep-21 00:59N 51°56' E 004°11'0 0.0
2017-Sep-21 00:29N 51°56' E 004°11'0 0.0
2017-Sep-20 23:59N 51°56' E 004°11'0 0.0
2017-Sep-20 23:29N 51°56' E 004°11'0 0.0
2017-Sep-20 22:59N 51°56' E 004°11'0 0.0
2017-Sep-20 22:29N 51°56' E 004°11'0 0.0
2017-Sep-20 21:59N 51°56' E 004°11'0 0.0
2017-Sep-20 21:29N 51°56' E 004°11'0 0.0
2017-Sep-20 20:59N 51°56' E 004°11'0 0.0
2017-Sep-20 20:29N 51°56' E 004°11'0 0.0
2017-Sep-20 19:59N 51°56' E 004°11'0 0.0
2017-Sep-20 19:29N 51°56' E 004°11'0 0.0
2017-Sep-20 18:59N 51°56' E 004°11'0 0.0
2017-Sep-20 18:29N 51°56' E 004°11'0 0.0
2017-Sep-20 17:59N 51°56' E 004°11'0 0.0
2017-Sep-20 17:29N 51°56' E 004°11'0 0.0
2017-Sep-20 16:59N 51°56' E 004°11'0 0.0
2017-Sep-20 16:29N 51°56' E 004°11'0 0.0
2017-Sep-20 15:59N 51°56' E 004°11'0 0.0
2017-Sep-20 15:29N 51°56' E 004°11'0 0.0
2017-Sep-20 14:59N 51°56' E 004°11'0 0.0
2017-Sep-20 13:59N 51°56' E 004°11'0 0.0
2017-Sep-20 13:29N 51°56' E 004°11'0 0.0
2017-Sep-20 12:59N 51°56' E 004°11'0 0.0
2017-Sep-20 12:29N 51°56' E 004°11'0 0.0
2017-Sep-20 11:59N 51°56' E 004°11'0 0.0
2017-Sep-20 11:29N 51°56' E 004°11'0 0.0
2017-Sep-20 10:59N 51°56' E 004°11'0 0.0
2017-Sep-20 10:29N 51°56' E 004°11'0 0.0
2017-Sep-20 09:59N 51°56' E 004°11'0 0.0
2017-Sep-20 09:29N 51°56' E 004°11'0 0.0
2017-Sep-20 08:59N 51°56' E 004°11'0 0.0
2017-Sep-20 08:29N 51°56' E 004°11'0 0.0
2017-Sep-20 07:59N 51°56' E 004°11'0 0.0
2017-Sep-20 07:29N 51°56' E 004°11'0 0.0
2017-Sep-20 06:59N 51°56' E 004°11'0 0.0
2017-Sep-20 06:29N 51°56' E 004°11'0 0.0
2017-Sep-20 05:59N 51°56' E 004°11'0 0.0
2017-Sep-20 05:29N 51°56' E 004°11'0 0.0
2017-Sep-20 04:59N 51°56' E 004°11'0 0.0
2017-Sep-20 04:29N 51°56' E 004°11'0 0.0
2017-Sep-20 03:59N 51°56' E 004°11'0 0.0
2017-Sep-20 03:29N 51°56' E 004°11'0 0.0
2017-Sep-20 02:59N 51°56' E 004°11'0 0.0
2017-Sep-20 02:29N 51°56' E 004°11'0 0.0
2017-Sep-20 01:59N 51°56' E 004°11'0 0.0
2017-Sep-20 01:29N 51°56' E 004°11'0 0.0
2017-Sep-20 00:56N 51°56' E 004°11'0 0.0
2017-Sep-20 00:29N 51°56' E 004°11'0 0.0
2017-Sep-19 23:59N 51°56' E 004°11'0 0.0
2017-Sep-19 23:29N 51°56' E 004°11'0 0.0
2017-Sep-19 22:59N 51°56' E 004°11'0 0.0
2017-Sep-19 22:29N 51°56' E 004°11'0 0.0
2017-Sep-19 21:59N 51°56' E 004°11'0 0.0
2017-Sep-19 21:29N 51°56' E 004°11'0 0.0
2017-Sep-19 20:59N 51°56' E 004°11'0 0.0
2017-Sep-19 20:29N 51°56' E 004°11'0 0.0
2017-Sep-19 19:59N 51°56' E 004°11'0 0.0
2017-Sep-19 19:29N 51°56' E 004°11'0 0.0
2017-Sep-19 18:59N 51°56' E 004°11'0 0.0
2017-Sep-19 18:29N 51°56' E 004°11'0 0.0
2017-Sep-19 17:59N 51°56' E 004°11'0 0.0
2017-Sep-19 17:29N 51°56' E 004°11'0 0.0
2017-Sep-19 16:59N 51°56' E 004°11'0 0.0
2017-Sep-19 16:29N 51°56' E 004°11'0 0.0
2017-Sep-19 15:59N 51°56' E 004°11'0 0.0
2017-Sep-19 15:29N 51°56' E 004°11'0 0.0
2017-Sep-19 14:59N 51°56' E 004°11'0 0.0
2017-Sep-19 14:29N 51°56' E 004°11'0 0.0
2017-Sep-19 13:59N 51°56' E 004°11'0 0.0
2017-Sep-19 13:29N 51°56' E 004°11'0 0.0
2017-Sep-19 12:59N 51°56' E 004°11'0 0.0
2017-Sep-19 12:29N 51°56' E 004°11'0 0.0
2017-Sep-19 11:59N 51°56' E 004°11'0 0.0
2017-Sep-19 11:29N 51°56' E 004°11'0 0.0
2017-Sep-19 10:59N 51°56' E 004°11'0 0.0
2017-Sep-19 10:29N 51°56' E 004°11'0 0.0
2017-Sep-19 09:59N 51°56' E 004°11'0 0.0
2017-Sep-19 09:29N 51°56' E 004°11'0 0.0
2017-Sep-19 08:59N 51°56' E 004°11'0 0.0
2017-Sep-19 08:29N 51°56' E 004°11'0 0.0
2017-Sep-19 07:59N 51°56' E 004°11'0 0.0
2017-Sep-19 07:29N 51°56' E 004°11'0 0.0
2017-Sep-19 06:59N 51°56' E 004°11'0 0.0
2017-Sep-19 06:29N 51°56' E 004°11'0 0.0
2017-Sep-19 05:59N 51°56' E 004°11'0 0.0
2017-Sep-19 05:29N 51°56' E 004°11'0 0.0
2017-Sep-19 04:59N 51°56' E 004°11'0 0.0
2017-Sep-19 04:29N 51°56' E 004°11'0 0.0
2017-Sep-19 03:59N 51°56' E 004°11'0 0.0
2017-Sep-19 03:29N 51°56' E 004°11'0 0.0
2017-Sep-19 02:59N 51°56' E 004°11'0 0.0
2017-Sep-19 02:29N 51°56' E 004°11'0 0.0
2017-Sep-19 01:59N 51°56' E 004°11'0 0.0
2017-Sep-19 01:29N 51°56' E 004°11'0 0.0
2017-Sep-19 00:59N 51°56' E 004°11'0 0.0
2017-Sep-19 00:29N 51°56' E 004°11'0 0.0
2017-Sep-18 23:59N 51°56' E 004°11'0 0.0
2017-Sep-18 23:29N 51°56' E 004°11'0 0.0
2017-Sep-18 22:59N 51°56' E 004°11'0 0.0
2017-Sep-18 22:29N 51°56' E 004°11'0 0.0
2017-Sep-18 21:59N 51°56' E 004°11'0 0.0
2017-Sep-18 21:29N 51°56' E 004°11'0 0.0
2017-Sep-18 20:59N 51°56' E 004°11'0 0.0
2017-Sep-18 20:29N 51°56' E 004°11'0 0.0
2017-Sep-18 19:59N 51°56' E 004°11'0 0.0
2017-Sep-18 19:29N 51°56' E 004°11'0 0.0
2017-Sep-18 18:59N 51°56' E 004°11'0 0.0
2017-Sep-18 18:29N 51°56' E 004°11'0 0.0
2017-Sep-18 17:59N 51°56' E 004°11'0 0.0
2017-Sep-18 17:29N 51°56' E 004°11'0 0.0
2017-Sep-18 16:59N 51°56' E 004°11'0 0.0
2017-Sep-18 16:29N 51°56' E 004°11'0 0.0
2017-Sep-18 15:59N 51°56' E 004°11'0 0.0
2017-Sep-18 15:29N 51°56' E 004°11'0 0.0
2017-Sep-18 14:59N 51°56' E 004°11'0 0.0
2017-Sep-18 14:29N 51°56' E 004°11'0 0.0
2017-Sep-18 13:59N 51°56' E 004°11'0 0.0
2017-Sep-18 13:29N 51°56' E 004°11'0 0.0
2017-Sep-18 12:59N 51°56' E 004°11'0 0.0
2017-Sep-18 12:29N 51°56' E 004°11'0 0.0
2017-Sep-18 11:59N 51°56' E 004°11'0 0.0
2017-Sep-18 11:29N 51°56' E 004°11'0 0.0
2017-Sep-18 10:59N 51°56' E 004°11'0 0.0
2017-Sep-18 10:29N 51°56' E 004°11'0 0.0
2017-Sep-18 09:59N 51°56' E 004°11'0 0.0
2017-Sep-18 09:29N 51°56' E 004°11'0 0.0
2017-Sep-18 08:59N 51°56' E 004°11'0 0.0
2017-Sep-18 08:29N 51°56' E 004°11'0 0.0
2017-Sep-18 07:59N 51°56' E 004°11'0 0.0
2017-Sep-18 07:29N 51°56' E 004°11'0 0.0
2017-Sep-18 06:59N 51°56' E 004°11'0 0.0
2017-Sep-18 06:29N 51°56' E 004°11'0 0.0
2017-Sep-18 05:59N 51°56' E 004°11'0 0.0
2017-Sep-18 05:29N 51°56' E 004°11'0 0.0
2017-Sep-18 04:59N 51°56' E 004°11'0 0.0
2017-Sep-18 04:29N 51°56' E 004°11'0 0.0
2017-Sep-18 03:59N 51°56' E 004°11'0 0.0
2017-Sep-18 03:29N 51°56' E 004°11'0 0.0
2017-Sep-18 02:59N 51°56' E 004°11'0 0.0
2017-Sep-18 02:29N 51°56' E 004°11'0 0.0
2017-Sep-18 01:59N 51°56' E 004°11'0 0.0
2017-Sep-18 01:29N 51°56' E 004°11'0 0.0
2017-Sep-18 00:59N 51°56' E 004°11'0 0.0
2017-Sep-18 00:29N 51°56' E 004°11'0 0.0
2017-Sep-17 23:59N 51°56' E 004°11'0 0.0
2017-Sep-17 23:29N 51°56' E 004°11'0 0.0
2017-Sep-17 22:59N 51°56' E 004°11'0 0.0
2017-Sep-17 22:29N 51°56' E 004°11'0 0.0
2017-Sep-17 21:59N 51°56' E 004°11'0 0.0
2017-Sep-17 21:29N 51°56' E 004°11'0 0.0
2017-Sep-17 20:59N 51°56' E 004°11'0 0.0
2017-Sep-17 20:29N 51°56' E 004°11'0 0.0
2017-Sep-17 19:59N 51°56' E 004°11'0 0.0
2017-Sep-17 19:29N 51°56' E 004°11'0 0.0
2017-Sep-17 18:59N 51°56' E 004°11'0 0.0
2017-Sep-17 18:29N 51°56' E 004°11'0 0.0
2017-Sep-17 17:59N 51°56' E 004°11'0 0.0
2017-Sep-17 17:29N 51°56' E 004°11'0 0.0
2017-Sep-17 16:59N 51°56' E 004°11'0 0.0
2017-Sep-17 16:29N 51°56' E 004°11'0 0.0
2017-Sep-17 15:59N 51°56' E 004°11'0 0.0
2017-Sep-17 15:29N 51°56' E 004°11'0 0.0
2017-Sep-17 14:59N 51°56' E 004°11'0 0.0
2017-Sep-17 14:29N 51°56' E 004°11'0 0.0
2017-Sep-17 13:59N 51°56' E 004°11'0 0.0
2017-Sep-17 13:29N 51°56' E 004°11'0 0.0
2017-Sep-17 12:59N 51°56' E 004°11'0 0.0
2017-Sep-17 12:29N 51°56' E 004°11'0 0.0
2017-Sep-17 11:59N 51°56' E 004°11'0 0.0
2017-Sep-17 11:29N 51°56' E 004°11'0 0.0
2017-Sep-17 10:59N 51°56' E 004°11'0 0.0
2017-Sep-17 10:29N 51°56' E 004°11'0 0.0
2017-Sep-17 09:59N 51°56' E 004°11'0 0.0
2017-Sep-17 09:29N 51°56' E 004°11'0 0.0
2017-Sep-17 08:59N 51°56' E 004°11'0 0.0
2017-Sep-17 08:29N 51°56' E 004°11'0 0.0
2017-Sep-17 07:59N 51°56' E 004°11'0 0.0
2017-Sep-17 07:29N 51°56' E 004°11'0 0.0
2017-Sep-17 06:59N 51°56' E 004°11'0 0.0
2017-Sep-17 06:29N 51°56' E 004°11'0 0.0
2017-Sep-17 05:59N 51°56' E 004°11'0 0.0
2017-Sep-17 05:29N 51°56' E 004°11'0 0.0
2017-Sep-17 04:59N 51°56' E 004°11'0 0.0
2017-Sep-17 04:29N 51°56' E 004°11'0 0.0
2017-Sep-17 03:59N 51°56' E 004°11'0 0.0
2017-Sep-17 03:29N 51°56' E 004°11'0 0.0
2017-Sep-17 02:59N 51°56' E 004°11'0 0.0
2017-Sep-17 02:29N 51°56' E 004°11'0 0.0
2017-Sep-17 01:59N 51°56' E 004°11'0 0.0
2017-Sep-17 01:29N 51°56' E 004°11'0 0.0
2017-Sep-17 00:59N 51°56' E 004°11'0 0.0
2017-Sep-17 00:29N 51°56' E 004°11'0 0.0
2017-Sep-16 23:59N 51°56' E 004°11'0 0.0
2017-Sep-16 23:29N 51°56' E 004°11'0 0.0
2017-Sep-16 22:59N 51°56' E 004°11'0 0.0
2017-Sep-16 22:29N 51°56' E 004°11'0 0.0
2017-Sep-16 21:59N 51°56' E 004°11'0 0.0
2017-Sep-16 21:29N 51°56' E 004°11'0 0.0
2017-Sep-16 20:59N 51°56' E 004°11'0 0.0
2017-Sep-16 20:29N 51°56' E 004°11'0 0.0
2017-Sep-16 19:59N 51°56' E 004°11'0 0.0
2017-Sep-16 19:29N 51°56' E 004°11'0 0.0
2017-Sep-16 18:59N 51°56' E 004°11'0 0.0
2017-Sep-16 18:29N 51°56' E 004°11'0 0.0
2017-Sep-16 17:59N 51°56' E 004°11'0 0.0
2017-Sep-16 17:29N 51°56' E 004°11'0 0.0
2017-Sep-16 16:59N 51°56' E 004°11'0 0.0
2017-Sep-16 16:29N 51°56' E 004°11'0 0.0
2017-Sep-16 15:59N 51°56' E 004°11'0 0.0
2017-Sep-16 15:29N 51°56' E 004°11'0 0.0
2017-Sep-16 14:59N 51°56' E 004°11'0 0.0
2017-Sep-16 14:29N 51°56' E 004°11'0 0.0
2017-Sep-16 13:59N 51°56' E 004°11'0 0.0
2017-Sep-16 13:29N 51°56' E 004°11'0 0.0
2017-Sep-16 12:59N 51°56' E 004°11'0 0.0
2017-Sep-16 12:26N 51°56' E 004°11'0 0.0
2017-Sep-16 11:59N 51°56' E 004°11'0 0.0
2017-Sep-16 11:29N 51°56' E 004°11'0 0.0
2017-Sep-16 10:59N 51°56' E 004°11'0 0.0
2017-Sep-16 10:29N 51°56' E 004°11'0 0.0
2017-Sep-16 09:59N 51°56' E 004°11'0 0.0
2017-Sep-16 09:29N 51°56' E 004°11'0 0.0
2017-Sep-16 08:59N 51°56' E 004°11'0 0.0
2017-Sep-16 08:29N 51°56' E 004°11'0 0.0
2017-Sep-16 07:59N 51°56' E 004°11'0 0.0
2017-Sep-16 07:29N 51°56' E 004°11'0 0.0
2017-Sep-16 06:59N 51°56' E 004°11'0 0.0
2017-Sep-16 06:29N 51°56' E 004°11'0 0.0
2017-Sep-16 05:59N 51°56' E 004°11'0 0.0
2017-Sep-16 05:29N 51°56' E 004°11'0 0.0
2017-Sep-16 04:59N 51°56' E 004°11'0 0.0
2017-Sep-16 04:29N 51°56' E 004°11'0 0.0
2017-Sep-16 03:56N 51°56' E 004°11'0 0.0
2017-Sep-16 03:26N 51°56' E 004°11'0 0.0
2017-Sep-16 02:59N 51°56' E 004°11'0 0.0
2017-Sep-16 02:29N 51°56' E 004°11'0 0.0
2017-Sep-16 01:59N 51°56' E 004°11'0 0.0
2017-Sep-16 01:29N 51°56' E 004°11'0 0.0
2017-Sep-16 00:59N 51°56' E 004°11'  
Track history (hours):
 
Tides and Currents Weather Stations Pressure Air Temp Water Temp Dewpoint Dewpoint Depression Visibility Wind Speed Wind Dir Waves Ship Positions

Yuan Shun Hai

Last reported at 2017-Sep-26 00:32 UTC. Time now 2017-Sep-26 02:09 UTC.
Position N 55°50' E 017°05'.

Length 190 m; draft 7 m.

Type: Cargo ship. MMSI: 353863000.

Date/timePositionNaut miles runAvg speedWind from/ knotsBaromVisibWave heightAir tempDewpointWater temp
2017-Sep-26 00:32N 55°50' E 017°05'213.2
2017-Sep-26 00:25N 55°50' E 017°03'513.2
2017-Sep-26 00:00N 55°48' E 016°53'813.0
2017-Sep-25 23:24N 55°46' E 016°40'511.6
2017-Sep-25 23:00N 55°45' E 016°32'3 5.6
2017-Sep-25 22:30N 55°45' E 016°27'3 5.4
2017-Sep-25 22:00N 55°44' E 016°22'3 5.2
2017-Sep-25 21:30N 55°44' E 016°18'3 5.0
2017-Sep-25 21:00N 55°43' E 016°14'2 4.9
2017-Sep-25 20:30N 55°42' E 016°09'2 4.7
2017-Sep-25 20:00N 55°41' E 016°05'2 4.6
2017-Sep-25 19:30N 55°41' E 016°01'2 4.6
2017-Sep-25 19:00N 55°40' E 015°57'2 4.6
2017-Sep-25 18:30N 55°40' E 015°53'2 4.4
2017-Sep-25 18:00N 55°40' E 015°50'2 4.2
2017-Sep-25 17:30N 55°39' E 015°46'2 3.9
2017-Sep-25 17:00N 55°39' E 015°43'2 4.4
2017-Sep-25 16:30N 55°38' E 015°39'510.6
2017-Sep-25 16:00N 55°37' E 015°30'612.5
2017-Sep-25 15:30N 55°34' E 015°20'612.3
2017-Sep-25 15:00N 55°32' E 015°09'612.4
2017-Sep-25 14:30N 55°30' E 014°59'612.5
2017-Sep-25 14:00N 55°28' E 014°49'612.6
2017-Sep-25 13:30N 55°24' E 014°39'612.7
2017-Sep-25 13:00N 55°20' E 014°32'712.7
2017-Sep-25 12:29N 55°14' E 014°25'612.7
2017-Sep-25 12:00N 55°10' E 014°18'612.3
2017-Sep-25 11:30N 55°09' E 014°08'1212.3
2017-Sep-25 10:31N 55°10' E 013°47'412.2
2017-Sep-25 10:12N 55°10' E 013°40'312.3
2017-Sep-25 09:56N 55°10' E 013°34'512.5
2017-Sep-25 09:30N 55°10' E 013°25'713.2
2017-Sep-25 09:00N 55°10' E 013°13'713.0
2017-Sep-25 08:30N 55°12' E 013°02'713.4
2017-Sep-25 08:00N 55°15' E 012°52'713.4
2017-Sep-25 07:30N 55°17' E 012°41'611.3
2017-Sep-25 07:00N 55°22' E 012°38'612.9
2017-Sep-25 06:30N 55°28' E 012°41'4 7.5
2017-Sep-25 06:00N 55°31' E 012°45'4 8.5
2017-Sep-25 05:30N 55°35' E 012°50'4 8.6
2017-Sep-25 05:00N 55°38' E 012°55'3 6.9
2017-Sep-25 04:30N 55°41' E 012°54'612.6
2017-Sep-25 04:00N 55°47' E 012°49'612.4
2017-Sep-25 03:30N 55°53' E 012°44'612.4
2017-Sep-25 03:00N 55°59' E 012°41'611.9
2017-Sep-25 02:30N 56°04' E 012°37'5 9.8
2017-Sep-25 02:00N 56°07' E 012°30'4 7.4
2017-Sep-25 01:30N 56°09' E 012°25'4 7.1
2017-Sep-25 01:00N 56°12' E 012°20'713.1
2017-Sep-25 00:30N 56°15' E 012°10'3213.4
2017-Sep-24 22:06N 56°46' E 011°51'214.1
2017-Sep-24 21:56N 56°48' E 011°50'614.3
2017-Sep-24 21:30N 56°53' E 011°46'714.4
2017-Sep-24 21:00N 57°00' E 011°42'914.1
2017-Sep-24 20:22N 57°09' E 011°36'514.0
2017-Sep-24 19:59N 57°14' E 011°33'714.1
2017-Sep-24 19:30N 57°20' E 011°29'714.2
2017-Sep-24 19:01N 57°27' E 011°24'713.6
2017-Sep-24 18:30N 57°32' E 011°15'713.9
2017-Sep-24 18:00N 57°36' E 011°05'714.3
2017-Sep-24 17:30N 57°41' E 010°55'714.0
2017-Sep-24 17:00N 57°46' E 010°46'713.1
2017-Sep-24 16:30N 57°49' E 010°36'714.3
2017-Sep-24 16:00N 57°50' E 010°23'714.3
2017-Sep-24 15:30N 57°51' E 010°09'1114.1
2017-Sep-24 14:45N 57°52' E 009°49'3514.0
2017-Sep-24 12:17N 57°32' E 008°56'1313.9
2017-Sep-24 11:23N 57°25' E 008°37'714.1
2017-Sep-24 10:54N 57°21' E 008°27'614.1
2017-Sep-24 10:27N 57°17' E 008°17'614.2
2017-Sep-24 10:00N 57°13' E 008°08'  
2017-Sep-22 01:59N 51°56' E 004°11'0 0.0
2017-Sep-22 01:29N 51°56' E 004°11'0 0.0
2017-Sep-22 00:59N 51°56' E 004°11'0 0.0
2017-Sep-22 00:29N 51°56' E 004°11'0 0.0
2017-Sep-21 23:59N 51°56' E 004°11'0 0.0
2017-Sep-21 23:29N 51°56' E 004°11'0 0.0
2017-Sep-21 22:59N 51°56' E 004°11'0 0.0
2017-Sep-21 22:29N 51°56' E 004°11'0 0.0
2017-Sep-21 21:59N 51°56' E 004°11'0 0.0
2017-Sep-21 21:29N 51°56' E 004°11'0 0.0
2017-Sep-21 20:59N 51°56' E 004°11'0 0.0
2017-Sep-21 20:29N 51°56' E 004°11'0 0.0
2017-Sep-21 19:59N 51°56' E 004°11'0 0.0
2017-Sep-21 19:29N 51°56' E 004°11'0 0.0
2017-Sep-21 18:59N 51°56' E 004°11'0 0.0
2017-Sep-21 18:29N 51°56' E 004°11'0 0.0
2017-Sep-21 17:59N 51°56' E 004°11'0 0.0
2017-Sep-21 17:29N 51°56' E 004°11'0 0.0
2017-Sep-21 16:59N 51°56' E 004°11'0 0.0
2017-Sep-21 16:29N 51°56' E 004°11'0 0.0
2017-Sep-21 15:59N 51°56' E 004°11'0 0.0
2017-Sep-21 15:29N 51°56' E 004°11'0 0.0
2017-Sep-21 14:59N 51°56' E 004°11'0 0.0
2017-Sep-21 14:29N 51°56' E 004°11'0 0.0
2017-Sep-21 13:59N 51°56' E 004°11'0 0.0
2017-Sep-21 13:26N 51°56' E 004°11'0 0.0
2017-Sep-21 12:59N 51°56' E 004°11'0 0.0
2017-Sep-21 12:29N 51°56' E 004°11'0 0.0
2017-Sep-21 11:59N 51°56' E 004°11'0 0.0
2017-Sep-21 11:29N 51°56' E 004°11'0 0.0
2017-Sep-21 10:59N 51°56' E 004°11'0 0.0
2017-Sep-21 10:29N 51°56' E 004°11'0 0.0
2017-Sep-21 09:59N 51°56' E 004°11'0 0.0
2017-Sep-21 09:29N 51°56' E 004°11'0 0.0
2017-Sep-21 08:59N 51°56' E 004°11'0 0.0
2017-Sep-21 08:29N 51°56' E 004°11'0 0.0
2017-Sep-21 07:59N 51°56' E 004°11'0 0.0
2017-Sep-21 07:29N 51°56' E 004°11'0 0.0
2017-Sep-21 06:59N 51°56' E 004°11'0 0.0
2017-Sep-21 06:29N 51°56' E 004°11'0 0.0
2017-Sep-21 05:59N 51°56' E 004°11'0 0.0
2017-Sep-21 05:29N 51°56' E 004°11'0 0.0
2017-Sep-21 04:59N 51°56' E 004°11'0 0.0
2017-Sep-21 04:29N 51°56' E 004°11'0 0.0
2017-Sep-21 03:59N 51°56' E 004°11'0 0.0
2017-Sep-21 03:29N 51°56' E 004°11'0 0.0
2017-Sep-21 02:59N 51°56' E 004°11'0 0.0
2017-Sep-21 02:29N 51°56' E 004°11'0 0.0
2017-Sep-21 01:59N 51°56' E 004°11'0 0.0
2017-Sep-21 01:29N 51°56' E 004°11'0 0.0
2017-Sep-21 00:59N 51°56' E 004°11'0 0.0
2017-Sep-21 00:29N 51°56' E 004°11'0 0.0
2017-Sep-20 23:59N 51°56' E 004°11'0 0.0
2017-Sep-20 23:29N 51°56' E 004°11'0 0.0
2017-Sep-20 22:59N 51°56' E 004°11'0 0.0
2017-Sep-20 22:29N 51°56' E 004°11'0 0.0
2017-Sep-20 21:59N 51°56' E 004°11'0 0.0
2017-Sep-20 21:29N 51°56' E 004°11'0 0.0
2017-Sep-20 20:59N 51°56' E 004°11'0 0.0
2017-Sep-20 20:29N 51°56' E 004°11'0 0.0
2017-Sep-20 19:59N 51°56' E 004°11'0 0.0
2017-Sep-20 19:29N 51°56' E 004°11'0 0.0
2017-Sep-20 18:59N 51°56' E 004°11'0 0.0
2017-Sep-20 18:29N 51°56' E 004°11'0 0.0
2017-Sep-20 17:59N 51°56' E 004°11'0 0.0
2017-Sep-20 17:29N 51°56' E 004°11'0 0.0
2017-Sep-20 16:59N 51°56' E 004°11'0 0.0
2017-Sep-20 16:29N 51°56' E 004°11'0 0.0
2017-Sep-20 15:59N 51°56' E 004°11'0 0.0
2017-Sep-20 15:29N 51°56' E 004°11'0 0.0
2017-Sep-20 14:59N 51°56' E 004°11'0 0.0
2017-Sep-20 13:59N 51°56' E 004°11'0 0.0
2017-Sep-20 13:29N 51°56' E 004°11'0 0.0
2017-Sep-20 12:59N 51°56' E 004°11'0 0.0
2017-Sep-20 12:29N 51°56' E 004°11'0 0.0
2017-Sep-20 11:59N 51°56' E 004°11'0 0.0
2017-Sep-20 11:29N 51°56' E 004°11'0 0.0
2017-Sep-20 10:59N 51°56' E 004°11'0 0.0
2017-Sep-20 10:29N 51°56' E 004°11'0 0.0
2017-Sep-20 09:59N 51°56' E 004°11'0 0.0
2017-Sep-20 09:29N 51°56' E 004°11'0 0.0
2017-Sep-20 08:59N 51°56' E 004°11'0 0.0
2017-Sep-20 08:29N 51°56' E 004°11'0 0.0
2017-Sep-20 07:59N 51°56' E 004°11'0 0.0
2017-Sep-20 07:29N 51°56' E 004°11'0 0.0
2017-Sep-20 06:59N 51°56' E 004°11'0 0.0
2017-Sep-20 06:29N 51°56' E 004°11'0 0.0
2017-Sep-20 05:59N 51°56' E 004°11'0 0.0
2017-Sep-20 05:29N 51°56' E 004°11'0 0.0
2017-Sep-20 04:59N 51°56' E 004°11'0 0.0
2017-Sep-20 04:29N 51°56' E 004°11'0 0.0
2017-Sep-20 03:59N 51°56' E 004°11'0 0.0
2017-Sep-20 03:29N 51°56' E 004°11'0 0.0
2017-Sep-20 02:59N 51°56' E 004°11'0 0.0
2017-Sep-20 02:29N 51°56' E 004°11'0 0.0
2017-Sep-20 01:59N 51°56' E 004°11'0 0.0
2017-Sep-20 01:29N 51°56' E 004°11'0 0.0
2017-Sep-20 00:56N 51°56' E 004°11'0 0.0
2017-Sep-20 00:29N 51°56' E 004°11'0 0.0
2017-Sep-19 23:59N 51°56' E 004°11'0 0.0
2017-Sep-19 23:29N 51°56' E 004°11'0 0.0
2017-Sep-19 22:59N 51°56' E 004°11'0 0.0
2017-Sep-19 22:29N 51°56' E 004°11'0 0.0
2017-Sep-19 21:59N 51°56' E 004°11'0 0.0
2017-Sep-19 21:29N 51°56' E 004°11'0 0.0
2017-Sep-19 20:59N 51°56' E 004°11'0 0.0
2017-Sep-19 20:29N 51°56' E 004°11'0 0.0
2017-Sep-19 19:59N 51°56' E 004°11'0 0.0
2017-Sep-19 19:29N 51°56' E 004°11'0 0.0
2017-Sep-19 18:59N 51°56' E 004°11'0 0.0
2017-Sep-19 18:29N 51°56' E 004°11'0 0.0
2017-Sep-19 17:59N 51°56' E 004°11'0 0.0
2017-Sep-19 17:29N 51°56' E 004°11'0 0.0
2017-Sep-19 16:59N 51°56' E 004°11'0 0.0
2017-Sep-19 16:29N 51°56' E 004°11'0 0.0
2017-Sep-19 15:59N 51°56' E 004°11'0 0.0
2017-Sep-19 15:29N 51°56' E 004°11'0 0.0
2017-Sep-19 14:59N 51°56' E 004°11'0 0.0
2017-Sep-19 14:29N 51°56' E 004°11'0 0.0
2017-Sep-19 13:59N 51°56' E 004°11'0 0.0
2017-Sep-19 13:29N 51°56' E 004°11'0 0.0
2017-Sep-19 12:59N 51°56' E 004°11'0 0.0
2017-Sep-19 12:29N 51°56' E 004°11'0 0.0
2017-Sep-19 11:59N 51°56' E 004°11'0 0.0
2017-Sep-19 11:29N 51°56' E 004°11'0 0.0
2017-Sep-19 10:59N 51°56' E 004°11'0 0.0
2017-Sep-19 10:29N 51°56' E 004°11'0 0.0
2017-Sep-19 09:59N 51°56' E 004°11'0 0.0
2017-Sep-19 09:29N 51°56' E 004°11'0 0.0
2017-Sep-19 08:59N 51°56' E 004°11'0 0.0
2017-Sep-19 08:29N 51°56' E 004°11'0 0.0
2017-Sep-19 07:59N 51°56' E 004°11'0 0.0
2017-Sep-19 07:29N 51°56' E 004°11'0 0.0
2017-Sep-19 06:59N 51°56' E 004°11'0 0.0
2017-Sep-19 06:29N 51°56' E 004°11'0 0.0
2017-Sep-19 05:59N 51°56' E 004°11'0 0.0
2017-Sep-19 05:29N 51°56' E 004°11'0 0.0
2017-Sep-19 04:59N 51°56' E 004°11'0 0.0
2017-Sep-19 04:29N 51°56' E 004°11'0 0.0
2017-Sep-19 03:59N 51°56' E 004°11'0 0.0
2017-Sep-19 03:29N 51°56' E 004°11'0 0.0
2017-Sep-19 02:59N 51°56' E 004°11'0 0.0
2017-Sep-19 02:29N 51°56' E 004°11'0 0.0
2017-Sep-19 01:59N 51°56' E 004°11'0 0.0
2017-Sep-19 01:29N 51°56' E 004°11'0 0.0
2017-Sep-19 00:59N 51°56' E 004°11'0 0.0
2017-Sep-19 00:29N 51°56' E 004°11'0 0.0
2017-Sep-18 23:59N 51°56' E 004°11'0 0.0
2017-Sep-18 23:29N 51°56' E 004°11'0 0.0
2017-Sep-18 22:59N 51°56' E 004°11'0 0.0
2017-Sep-18 22:29N 51°56' E 004°11'0 0.0
2017-Sep-18 21:59N 51°56' E 004°11'0 0.0
2017-Sep-18 21:29N 51°56' E 004°11'0 0.0
2017-Sep-18 20:59N 51°56' E 004°11'0 0.0
2017-Sep-18 20:29N 51°56' E 004°11'0 0.0
2017-Sep-18 19:59N 51°56' E 004°11'0 0.0
2017-Sep-18 19:29N 51°56' E 004°11'0 0.0
2017-Sep-18 18:59N 51°56' E 004°11'0 0.0
2017-Sep-18 18:29N 51°56' E 004°11'0 0.0
2017-Sep-18 17:59N 51°56' E 004°11'0 0.0
2017-Sep-18 17:29N 51°56' E 004°11'0 0.0
2017-Sep-18 16:59N 51°56' E 004°11'0 0.0
2017-Sep-18 16:29N 51°56' E 004°11'0 0.0
2017-Sep-18 15:59N 51°56' E 004°11'0 0.0
2017-Sep-18 15:29N 51°56' E 004°11'0 0.0
2017-Sep-18 14:59N 51°56' E 004°11'0 0.0
2017-Sep-18 14:29N 51°56' E 004°11'0 0.0
2017-Sep-18 13:59N 51°56' E 004°11'0 0.0
2017-Sep-18 13:29N 51°56' E 004°11'0 0.0
2017-Sep-18 12:59N 51°56' E 004°11'0 0.0
2017-Sep-18 12:29N 51°56' E 004°11'0 0.0
2017-Sep-18 11:59N 51°56' E 004°11'0 0.0
2017-Sep-18 11:29N 51°56' E 004°11'0 0.0
2017-Sep-18 10:59N 51°56' E 004°11'0 0.0
2017-Sep-18 10:29N 51°56' E 004°11'0 0.0
2017-Sep-18 09:59N 51°56' E 004°11'0 0.0
2017-Sep-18 09:29N 51°56' E 004°11'0 0.0
2017-Sep-18 08:59N 51°56' E 004°11'0 0.0
2017-Sep-18 08:29N 51°56' E 004°11'0 0.0
2017-Sep-18 07:59N 51°56' E 004°11'0 0.0
2017-Sep-18 07:29N 51°56' E 004°11'0 0.0
2017-Sep-18 06:59N 51°56' E 004°11'0 0.0
2017-Sep-18 06:29N 51°56' E 004°11'0 0.0
2017-Sep-18 05:59N 51°56' E 004°11'0 0.0
2017-Sep-18 05:29N 51°56' E 004°11'0 0.0
2017-Sep-18 04:59N 51°56' E 004°11'0 0.0
2017-Sep-18 04:29N 51°56' E 004°11'0 0.0
2017-Sep-18 03:59N 51°56' E 004°11'0 0.0
2017-Sep-18 03:29N 51°56' E 004°11'0 0.0
2017-Sep-18 02:59N 51°56' E 004°11'0 0.0
2017-Sep-18 02:29N 51°56' E 004°11'0 0.0
2017-Sep-18 01:59N 51°56' E 004°11'0 0.0
2017-Sep-18 01:29N 51°56' E 004°11'0 0.0
2017-Sep-18 00:59N 51°56' E 004°11'0 0.0
2017-Sep-18 00:29N 51°56' E 004°11'0 0.0
2017-Sep-17 23:59N 51°56' E 004°11'0 0.0
2017-Sep-17 23:29N 51°56' E 004°11'0 0.0
2017-Sep-17 22:59N 51°56' E 004°11'0 0.0
2017-Sep-17 22:29N 51°56' E 004°11'0 0.0
2017-Sep-17 21:59N 51°56' E 004°11'0 0.0
2017-Sep-17 21:29N 51°56' E 004°11'0 0.0
2017-Sep-17 20:59N 51°56' E 004°11'0 0.0
2017-Sep-17 20:29N 51°56' E 004°11'0 0.0
2017-Sep-17 19:59N 51°56' E 004°11'0 0.0
2017-Sep-17 19:29N 51°56' E 004°11'0 0.0
2017-Sep-17 18:59N 51°56' E 004°11'0 0.0
2017-Sep-17 18:29N 51°56' E 004°11'0 0.0
2017-Sep-17 17:59N 51°56' E 004°11'0 0.0
2017-Sep-17 17:29N 51°56' E 004°11'0 0.0
2017-Sep-17 16:59N 51°56' E 004°11'0 0.0
2017-Sep-17 16:29N 51°56' E 004°11'0 0.0
2017-Sep-17 15:59N 51°56' E 004°11'0 0.0
2017-Sep-17 15:29N 51°56' E 004°11'0 0.0
2017-Sep-17 14:59N 51°56' E 004°11'0 0.0
2017-Sep-17 14:29N 51°56' E 004°11'0 0.0
2017-Sep-17 13:59N 51°56' E 004°11'0 0.0
2017-Sep-17 13:29N 51°56' E 004°11'0 0.0
2017-Sep-17 12:59N 51°56' E 004°11'0 0.0
2017-Sep-17 12:29N 51°56' E 004°11'0 0.0
2017-Sep-17 11:59N 51°56' E 004°11'0 0.0
2017-Sep-17 11:29N 51°56' E 004°11'0 0.0
2017-Sep-17 10:59N 51°56' E 004°11'0 0.0
2017-Sep-17 10:29N 51°56' E 004°11'0 0.0
2017-Sep-17 09:59N 51°56' E 004°11'0 0.0
2017-Sep-17 09:29N 51°56' E 004°11'0 0.0
2017-Sep-17 08:59N 51°56' E 004°11'0 0.0
2017-Sep-17 08:29N 51°56' E 004°11'0 0.0
2017-Sep-17 07:59N 51°56' E 004°11'0 0.0
2017-Sep-17 07:29N 51°56' E 004°11'0 0.0
2017-Sep-17 06:59N 51°56' E 004°11'0 0.0
2017-Sep-17 06:29N 51°56' E 004°11'0 0.0
2017-Sep-17 05:59N 51°56' E 004°11'0 0.0
2017-Sep-17 05:29N 51°56' E 004°11'0 0.0
2017-Sep-17 04:59N 51°56' E 004°11'0 0.0
2017-Sep-17 04:29N 51°56' E 004°11'0 0.0
2017-Sep-17 03:59N 51°56' E 004°11'0 0.0
2017-Sep-17 03:29N 51°56' E 004°11'0 0.0
2017-Sep-17 02:59N 51°56' E 004°11'0 0.0
2017-Sep-17 02:29N 51°56' E 004°11'0 0.0
2017-Sep-17 01:59N 51°56' E 004°11'0 0.0
2017-Sep-17 01:29N 51°56' E 004°11'0 0.0
2017-Sep-17 00:59N 51°56' E 004°11'0 0.0
2017-Sep-17 00:29N 51°56' E 004°11'0 0.0
2017-Sep-16 23:59N 51°56' E 004°11'0 0.0
2017-Sep-16 23:29N 51°56' E 004°11'0 0.0
2017-Sep-16 22:59N 51°56' E 004°11'0 0.0
2017-Sep-16 22:29N 51°56' E 004°11'0 0.0
2017-Sep-16 21:59N 51°56' E 004°11'0 0.0
2017-Sep-16 21:29N 51°56' E 004°11'0 0.0
2017-Sep-16 20:59N 51°56' E 004°11'0 0.0
2017-Sep-16 20:29N 51°56' E 004°11'0 0.0
2017-Sep-16 19:59N 51°56' E 004°11'0 0.0
2017-Sep-16 19:29N 51°56' E 004°11'0 0.0
2017-Sep-16 18:59N 51°56' E 004°11'0 0.0
2017-Sep-16 18:29N 51°56' E 004°11'0 0.0
2017-Sep-16 17:59N 51°56' E 004°11'0 0.0
2017-Sep-16 17:29N 51°56' E 004°11'0 0.0
2017-Sep-16 16:59N 51°56' E 004°11'0 0.0
2017-Sep-16 16:29N 51°56' E 004°11'0 0.0
2017-Sep-16 15:59N 51°56' E 004°11'0 0.0
2017-Sep-16 15:29N 51°56' E 004°11'0 0.0
2017-Sep-16 14:59N 51°56' E 004°11'0 0.0
2017-Sep-16 14:29N 51°56' E 004°11'0 0.0
2017-Sep-16 13:59N 51°56' E 004°11'0 0.0
2017-Sep-16 13:29N 51°56' E 004°11'0 0.0
2017-Sep-16 12:59N 51°56' E 004°11'0 0.0
2017-Sep-16 12:26N 51°56' E 004°11'0 0.0
2017-Sep-16 11:59N 51°56' E 004°11'0 0.0
2017-Sep-16 11:29N 51°56' E 004°11'0 0.0
2017-Sep-16 10:59N 51°56' E 004°11'0 0.0
2017-Sep-16 10:29N 51°56' E 004°11'0 0.0
2017-Sep-16 09:59N 51°56' E 004°11'0 0.0
2017-Sep-16 09:29N 51°56' E 004°11'0 0.0
2017-Sep-16 08:59N 51°56' E 004°11'0 0.0
2017-Sep-16 08:29N 51°56' E 004°11'0 0.0
2017-Sep-16 07:59N 51°56' E 004°11'0 0.0
2017-Sep-16 07:29N 51°56' E 004°11'0 0.0
2017-Sep-16 06:59N 51°56' E 004°11'0 0.0
2017-Sep-16 06:29N 51°56' E 004°11'0 0.0
2017-Sep-16 05:59N 51°56' E 004°11'0 0.0
2017-Sep-16 05:29N 51°56' E 004°11'0 0.0
2017-Sep-16 04:59N 51°56' E 004°11'0 0.0
2017-Sep-16 04:29N 51°56' E 004°11'0 0.0
2017-Sep-16 03:56N 51°56' E 004°11'0 0.0
2017-Sep-16 03:26N 51°56' E 004°11'0 0.0
2017-Sep-16 02:59N 51°56' E 004°11'0 0.0
2017-Sep-16 02:29N 51°56' E 004°11'0 0.0
2017-Sep-16 01:59N 51°56' E 004°11'0 0.0
2017-Sep-16 01:29N 51°56' E 004°11'0 0.0
2017-Sep-16 00:59N 51°56' E 004°11'  

Dump ship's entire track history